Geneva, Switzerland

7:03 PM CET on December 06, 2016 (GMT +0100)
Cointrin | | Change Station

Elev 1378 ft 46.25 °N, 6.13 °E | Updated 13 minutes ago

Clear
Clear
34 °F
Feels Like 34 °F
N
2
Wind Variable Wind from ENE

Today
High -- | Low -- °F
--% Chance of Precip.
Yesterday
High -- | Low -- °F
Precip. -- in
Pressure 30.42 in
Visibility 4.3 miles
Clouds
Dew Point 34 °F
Humidity 100%
Rainfall 0.00 in
Snow Depth Not available.
8:03 AM 4:49 PM
Waxing Crescent, 43% visible
METAR LSGG 061750Z 06002KT 7000 NSC 01/01 Q1030 BECMG 4500 BR
Pressure 30.42 in
Visibility 4.3 miles
Clouds
Dew Point 34 °F
Humidity 100%
Rainfall 0.00 in
Snow Depth Not available.
8:03 AM 4:49 PM
Waxing Crescent, 43% visible
METAR LSGG 061750Z 06002KT 7000 NSC 01/01 Q1030 BECMG 4500 BR

10-Day Weather Forecast

×

Almanac

Astronomy

Dec. 06, 2016 Rise Set
Actual Time
Civil Twilight
Nautical Twilight
Astronomical Twilight
Moon
Length of Visible Light
Length of Day
Tomorrow will be .
, % of the Moon is Illuminated

Today's Extremes

Country Highs Country Lows

Community

WunderPhotos

Upload Photos

1,955,986 photos uploaded!

WunderBlog® & News

Nearby

Air Quality

  Air Quality AQ Index Pollutant
Not available.

Snow Depth

Station Depth Elevation

Earthquake Activity

City Distance Mag. Time & Date
Minimum magnitude displayed is 2.5.

Coastal Water Temperatures

Place Temperature

Stations

Nearby Weather Stations

Station Location Temp. Windchill Dew Point Humidity Wind Precip. Elev Updated Type